sensor_id;sensor_type;location;lat;lon;timestamp;pressure;altitude;pressure_sealevel;temperature;humidity
40570;BME280;26270;34.428;-119.710;2023-02-21T05:03:20;101213.23;;;15.68;64.52
40570;BME280;26270;34.428;-119.710;2023-02-21T05:05:48;101209.28;;;15.85;64.08
40570;BME280;26270;34.428;-119.710;2023-02-21T05:08:16;101205.98;;;15.55;64.25
40570;BME280;26270;34.428;-119.710;2023-02-21T05:10:44;101206.35;;;15.39;65.22
40570;BME280;26270;34.428;-119.710;2023-02-21T05:13:13;101198.98;;;15.44;64.82
40570;BME280;26270;34.428;-119.710;2023-02-21T05:15:42;101203.61;;;15.23;66.07
40570;BME280;26270;34.428;-119.710;2023-02-21T05:18:10;101207.83;;;15.17;67.00
40570;BME280;26270;34.428;-119.710;2023-02-21T05:20:38;101197.91;;;15.15;66.92
40570;BME280;26270;34.428;-119.710;2023-02-21T05:23:07;101198.58;;;15.12;66.98
40570;BME280;26270;34.428;-119.710;2023-02-21T05:25:35;101206.84;;;15.19;66.15
40570;BME280;26270;34.428;-119.710;2023-02-21T05:28:03;101205.97;;;15.16;65.86
40570;BME280;26270;34.428;-119.710;2023-02-21T05:30:31;101206.13;;;15.10;65.78
40570;BME280;26270;34.428;-119.710;2023-02-21T05:32:59;101207.37;;;15.28;66.05
40570;BME280;26270;34.428;-119.710;2023-02-21T05:35:27;101204.41;;;15.15;65.45
40570;BME280;26270;34.428;-119.710;2023-02-21T05:37:55;101209.62;;;14.99;66.68
40570;BME280;26270;34.428;-119.710;2023-02-21T05:40:24;101202.61;;;15.13;66.31
40570;BME280;26270;34.428;-119.710;2023-02-21T05:42:52;101198.05;;;15.18;66.23
40570;BME280;26270;34.428;-119.710;2023-02-21T05:45:20;101197.32;;;14.98;65.72
40570;BME280;26270;34.428;-119.710;2023-02-21T05:47:48;101200.58;;;15.03;66.28
40570;BME280;26270;34.428;-119.710;2023-02-21T05:50:16;101207.50;;;14.87;67.43
40570;BME280;26270;34.428;-119.710;2023-02-21T05:52:45;101201.61;;;14.66;68.24
40570;BME280;26270;34.428;-119.710;2023-02-21T05:55:13;101199.22;;;14.95;67.01
40570;BME280;26270;34.428;-119.710;2023-02-21T05:57:41;101189.52;;;14.95;66.30
40570;BME280;26270;34.428;-119.710;2023-02-21T06:00:15;101183.31;;;14.92;66.52
40570;BME280;26270;34.428;-119.710;2023-02-21T06:02:44;101189.73;;;14.49;67.07
40570;BME280;26270;34.428;-119.710;2023-02-21T06:05:12;101190.37;;;14.46;66.96
40570;BME280;26270;34.428;-119.710;2023-02-21T06:07:41;101177.57;;;14.65;66.51
40570;BME280;26270;34.428;-119.710;2023-02-21T06:10:09;101178.82;;;14.36;67.06
40570;BME280;26270;34.428;-119.710;2023-02-21T06:12:37;101182.33;;;14.44;66.23
40570;BME280;26270;34.428;-119.710;2023-02-21T06:15:07;101181.47;;;14.54;66.04
40570;BME280;26270;34.428;-119.710;2023-02-21T06:17:36;101179.38;;;14.58;66.22
40570;BME280;26270;34.428;-119.710;2023-02-21T06:20:07;101175.39;;;14.13;66.76
40570;BME280;26270;34.428;-119.710;2023-02-21T06:22:36;101171.00;;;14.06;65.79
40570;BME280;26270;34.428;-119.710;2023-02-21T06:25:05;101169.37;;;14.44;64.98
40570;BME280;26270;34.428;-119.710;2023-02-21T06:27:34;101173.70;;;14.09;65.65
40570;BME280;26270;34.428;-119.710;2023-02-21T06:30:02;101169.92;;;14.28;65.13
40570;BME280;26270;34.428;-119.710;2023-02-21T06:32:31;101165.38;;;14.26;65.75
40570;BME280;26270;34.428;-119.710;2023-02-21T06:34:59;101170.99;;;13.76;67.03
40570;BME280;26270;34.428;-119.710;2023-02-21T06:37:28;101165.00;;;13.77;66.99
40570;BME280;26270;34.428;-119.710;2023-02-21T06:39:57;101158.95;;;13.89;66.35
40570;BME280;26270;34.428;-119.710;2023-02-21T06:42:25;101155.06;;;13.90;66.32
40570;BME280;26270;34.428;-119.710;2023-02-21T06:44:53;101150.00;;;13.95;65.80
40570;BME280;26270;34.428;-119.710;2023-02-21T06:47:22;101144.31;;;13.79;65.10
40570;BME280;26270;34.428;-119.710;2023-02-21T06:49:50;101139.27;;;13.70;65.18
40570;BME280;26270;34.428;-119.710;2023-02-21T06:52:19;101137.65;;;13.84;64.55
40570;BME280;26270;34.428;-119.710;2023-02-21T06:54:49;101132.06;;;13.69;64.51
40570;BME280;26270;34.428;-119.710;2023-02-21T06:57:17;101132.42;;;13.73;64.01
40570;BME280;26270;34.428;-119.710;2023-02-21T06:59:45;101132.08;;;13.57;64.22
40570;BME280;26270;34.428;-119.710;2023-02-21T07:02:17;101136.49;;;13.65;64.91
40570;BME280;26270;34.428;-119.710;2023-02-21T07:04:45;101135.20;;;13.36;65.46
40570;BME280;26270;34.428;-119.710;2023-02-21T07:07:14;101127.72;;;13.55;65.10
40570;BME280;26270;34.428;-119.710;2023-02-21T07:09:42;101125.48;;;13.59;65.66
40570;BME280;26270;34.428;-119.710;2023-02-21T07:12:11;101114.14;;;13.45;65.70
40570;BME280;26270;34.428;-119.710;2023-02-21T07:14:39;101111.88;;;13.58;65.37
40570;BME280;26270;34.428;-119.710;2023-02-21T07:17:07;101110.96;;;13.40;65.41
40570;BME280;26270;34.428;-119.710;2023-02-21T07:19:35;101113.36;;;13.38;66.03
40570;BME280;26270;34.428;-119.710;2023-02-21T07:22:03;101110.29;;;13.28;66.06
40570;BME280;26270;34.428;-119.710;2023-02-21T07:24:32;101111.12;;;13.40;65.65
40570;BME280;26270;34.428;-119.710;2023-02-21T07:27:00;101115.96;;;13.34;65.45
40570;BME280;26270;34.428;-119.710;2023-02-21T07:29:29;101117.48;;;13.42;65.30
40570;BME280;26270;34.428;-119.710;2023-02-21T07:31:57;101124.08;;;13.41;65.25
40570;BME280;26270;34.428;-119.710;2023-02-21T07:34:25;101118.71;;;13.42;65.55
40570;BME280;26270;34.428;-119.710;2023-02-21T07:36:53;101123.60;;;13.58;64.78
40570;BME280;26270;34.428;-119.710;2023-02-21T07:39:21;101122.44;;;13.43;65.26
40570;BME280;26270;34.428;-119.710;2023-02-21T07:41:49;101115.04;;;13.37;65.64
40570;BME280;26270;34.428;-119.710;2023-02-21T07:44:18;101114.49;;;12.99;66.41
40570;BME280;26270;34.428;-119.710;2023-02-21T07:46:45;101112.60;;;12.81;66.62
40570;BME280;26270;34.428;-119.710;2023-02-21T07:49:13;101103.85;;;12.93;66.04
40570;BME280;26270;34.428;-119.710;2023-02-21T07:51:41;101094.34;;;12.89;65.69
40570;BME280;26270;34.428;-119.710;2023-02-21T07:54:09;101094.32;;;13.02;65.71
40570;BME280;26270;34.428;-119.710;2023-02-21T07:56:42;101091.91;;;12.96;65.52
40570;BME280;26270;34.428;-119.710;2023-02-21T07:59:11;101090.62;;;12.98;65.36
40570;BME280;26270;34.428;-119.710;2023-02-21T08:01:39;101091.26;;;12.99;65.19
40570;BME280;26270;34.428;-119.710;2023-02-21T08:04:08;101087.25;;;13.12;64.84
40570;BME280;26270;34.428;-119.710;2023-02-21T08:06:36;101080.87;;;13.02;64.68
40570;BME280;26270;34.428;-119.710;2023-02-21T08:09:05;101075.64;;;12.94;64.37
40570;BME280;26270;34.428;-119.710;2023-02-21T08:11:33;101068.75;;;12.83;64.54
40570;BME280;26270;34.428;-119.710;2023-02-21T08:14:01;101062.47;;;12.71;64.51
40570;BME280;26270;34.428;-119.710;2023-02-21T08:16:29;101055.22;;;12.37;65.44
40570;BME280;26270;34.428;-119.710;2023-02-21T08:18:57;101047.06;;;12.45;65.19
40570;BME280;26270;34.428;-119.710;2023-02-21T08:21:25;101045.87;;;12.69;64.43
40570;BME280;26270;34.428;-119.710;2023-02-21T08:23:54;101047.59;;;12.66;64.62
40570;BME280;26270;34.428;-119.710;2023-02-21T08:26:22;101043.62;;;12.64;64.10
40570;BME280;26270;34.428;-119.710;2023-02-21T08:28:50;101040.47;;;12.71;64.52
40570;BME280;26270;34.428;-119.710;2023-02-21T08:31:18;101038.53;;;12.78;64.24
40570;BME280;26270;34.428;-119.710;2023-02-21T08:33:47;101035.06;;;12.83;63.59
40570;BME280;26270;34.428;-119.710;2023-02-21T08:36:15;101040.00;;;12.59;63.88
40570;BME280;26270;34.428;-119.710;2023-02-21T08:38:43;101042.38;;;12.59;64.18
40570;BME280;26270;34.428;-119.710;2023-02-21T08:41:11;101042.84;;;12.74;63.50
40570;BME280;26270;34.428;-119.710;2023-02-21T08:43:39;101036.25;;;12.48;63.66
40570;BME280;26270;34.428;-119.710;2023-02-21T08:46:08;101029.28;;;12.23;64.02
40570;BME280;26270;34.428;-119.710;2023-02-21T08:48:36;101026.69;;;11.97;65.31
40570;BME280;26270;34.428;-119.710;2023-02-21T08:51:05;101026.23;;;12.01;66.33
40570;BME280;26270;34.428;-119.710;2023-02-21T08:53:33;101024.53;;;12.09;66.79
40570;BME280;26270;34.428;-119.710;2023-02-21T08:56:02;101021.15;;;12.20;66.52
40570;BME280;26270;34.428;-119.710;2023-02-21T08:58:30;101024.44;;;12.40;65.62
40570;BME280;26270;34.428;-119.710;2023-02-21T09:00:58;101018.61;;;11.82;68.53
40570;BME280;26270;34.428;-119.710;2023-02-21T09:03:26;101014.53;;;12.08;67.98
40570;BME280;26270;34.428;-119.710;2023-02-21T09:05:55;101008.88;;;12.12;67.81
40570;BME280;26270;34.428;-119.710;2023-02-21T09:08:23;101004.28;;;11.95;68.27
40570;BME280;26270;34.428;-119.710;2023-02-21T09:10:51;100999.60;;;12.03;67.58
40570;BME280;26270;34.428;-119.710;2023-02-21T09:13:19;101005.23;;;12.08;67.54
40570;BME280;26270;34.428;-119.710;2023-02-21T09:15:47;101011.36;;;12.35;67.73
40570;BME280;26270;34.428;-119.710;2023-02-21T09:18:15;101010.53;;;12.32;67.34
40570;BME280;26270;34.428;-119.710;2023-02-21T09:20:43;100999.61;;;12.17;68.18
40570;BME280;26270;34.428;-119.710;2023-02-21T09:23:12;101002.03;;;12.08;68.17
40570;BME280;26270;34.428;-119.710;2023-02-21T09:25:40;100998.26;;;12.19;67.47
40570;BME280;26270;34.428;-119.710;2023-02-21T09:28:08;100994.93;;;12.12;68.33
40570;BME280;26270;34.428;-119.710;2023-02-21T09:30:37;100996.60;;;11.89;67.44
40570;BME280;26270;34.428;-119.710;2023-02-21T09:33:05;100999.70;;;12.13;67.58
40570;BME280;26270;34.428;-119.710;2023-02-21T09:35:34;101000.77;;;11.95;68.02
40570;BME280;26270;34.428;-119.710;2023-02-21T09:38:03;100997.67;;;11.99;67.49
40570;BME280;26270;34.428;-119.710;2023-02-21T09:40:36;100996.29;;;12.00;67.71
40570;BME280;26270;34.428;-119.710;2023-02-21T09:43:11;100993.60;;;12.13;67.41
40570;BME280;26270;34.428;-119.710;2023-02-21T09:45:41;100989.82;;;11.91;67.84
40570;BME280;26270;34.428;-119.710;2023-02-21T09:48:14;100984.94;;;11.94;67.00
40570;BME280;26270;34.428;-119.710;2023-02-21T09:50:46;100980.75;;;11.94;67.20
40570;BME280;26270;34.428;-119.710;2023-02-21T09:53:20;100973.20;;;12.00;67.60
40570;BME280;26270;34.428;-119.710;2023-02-21T09:55:50;100964.54;;;11.93;67.22
40570;BME280;26270;34.428;-119.710;2023-02-21T09:58:20;100963.49;;;11.66;68.09
40570;BME280;26270;34.428;-119.710;2023-02-21T10:00:48;100961.97;;;11.72;67.18
40570;BME280;26270;34.428;-119.710;2023-02-21T10:03:31;100959.14;;;11.67;67.32
40570;BME280;26270;34.428;-119.710;2023-02-21T10:06:11;100959.61;;;11.72;66.41
40570;BME280;26270;34.428;-119.710;2023-02-21T10:08:51;100953.76;;;11.74;66.10
40570;BME280;26270;34.428;-119.710;2023-02-21T10:11:29;100949.45;;;11.80;66.55
40570;BME280;26270;34.428;-119.710;2023-02-21T10:14:08;100947.40;;;11.80;66.88
40570;BME280;26270;34.428;-119.710;2023-02-21T10:16:44;100947.11;;;11.57;66.80
40570;BME280;26270;34.428;-119.710;2023-02-21T10:19:20;100946.18;;;11.69;66.72
40570;BME280;26270;34.428;-119.710;2023-02-21T10:21:49;100941.51;;;11.46;66.73
40570;BME280;26270;34.428;-119.710;2023-02-21T10:24:22;100940.71;;;11.59;66.67
40570;BME280;26270;34.428;-119.710;2023-02-21T10:26:55;100939.16;;;11.58;66.95
40570;BME280;26270;34.428;-119.710;2023-02-21T10:29:26;100938.33;;;11.34;67.23
40570;BME280;26270;34.428;-119.710;2023-02-21T10:32:00;100942.23;;;11.52;66.96
40570;BME280;26270;34.428;-119.710;2023-02-21T10:34:31;100940.97;;;11.62;65.56
40570;BME280;26270;34.428;-119.710;2023-02-21T10:37:03;100940.11;;;11.48;66.43
40570;BME280;26270;34.428;-119.710;2023-02-21T10:39:40;100938.06;;;11.27;67.48
40570;BME280;26270;34.428;-119.710;2023-02-21T10:42:17;100932.05;;;11.23;67.86
40570;BME280;26270;34.428;-119.710;2023-02-21T10:44:49;100926.86;;;10.96;68.98
40570;BME280;26270;34.428;-119.710;2023-02-21T10:47:21;100921.51;;;11.13;68.55
40570;BME280;26270;34.428;-119.710;2023-02-21T10:49:55;100919.81;;;11.28;68.90
40570;BME280;26270;34.428;-119.710;2023-02-21T10:52:27;100912.07;;;11.21;68.66
40570;BME280;26270;34.428;-119.710;2023-02-21T10:55:05;100914.71;;;11.20;68.45
40570;BME280;26270;34.428;-119.710;2023-02-21T10:57:37;100906.79;;;11.06;68.53
40570;BME280;26270;34.428;-119.710;2023-02-21T11:00:06;100895.83;;;11.20;67.97
40570;BME280;26270;34.428;-119.710;2023-02-21T11:02:38;100896.01;;;11.17;68.17
40570;BME280;26270;34.428;-119.710;2023-02-21T11:05:11;100905.11;;;11.19;67.57
40570;BME280;26270;34.428;-119.710;2023-02-21T11:07:40;100906.46;;;11.20;67.58
40570;BME280;26270;34.428;-119.710;2023-02-21T11:10:28;100899.70;;;11.32;67.10
40570;BME280;26270;34.428;-119.710;2023-02-21T11:13:10;100900.56;;;11.34;66.91
40570;BME280;26270;34.428;-119.710;2023-02-21T11:15:40;100912.47;;;11.17;66.75
40570;BME280;26270;34.428;-119.710;2023-02-21T11:18:18;100905.10;;;11.16;66.22
40570;BME280;26270;34.428;-119.710;2023-02-21T11:20:51;100902.34;;;11.26;66.24
40570;BME280;26270;34.428;-119.710;2023-02-21T11:23:23;100899.44;;;11.13;65.31
40570;BME280;26270;34.428;-119.710;2023-02-21T11:25:58;100898.88;;;10.81;65.80
40570;BME280;26270;34.428;-119.710;2023-02-21T11:28:26;100882.56;;;10.84;65.36
40570;BME280;26270;34.428;-119.710;2023-02-21T11:31:15;100877.14;;;10.74;65.24
40570;BME280;26270;34.428;-119.710;2023-02-21T11:33:51;100873.24;;;10.98;64.86
40570;BME280;26270;34.428;-119.710;2023-02-21T11:36:27;100870.97;;;10.83;64.90
40570;BME280;26270;34.428;-119.710;2023-02-21T11:39:05;100868.73;;;10.84;64.86
40570;BME280;26270;34.428;-119.710;2023-02-21T11:41:43;100870.70;;;10.92;64.60
40570;BME280;26270;34.428;-119.710;2023-02-21T11:44:28;100865.02;;;10.84;63.91
40570;BME280;26270;34.428;-119.710;2023-02-21T11:47:07;100860.80;;;10.93;63.40
40570;BME280;26270;34.428;-119.710;2023-02-21T11:49:46;100866.04;;;10.76;63.60
40570;BME280;26270;34.428;-119.710;2023-02-21T11:52:21;100860.61;;;10.96;62.14
40570;BME280;26270;34.428;-119.710;2023-02-21T11:54:51;100861.66;;;10.86;62.32
40570;BME280;26270;34.428;-119.710;2023-02-21T11:57:26;100860.94;;;10.65;62.05
40570;BME280;26270;34.428;-119.710;2023-02-21T12:00:12;100861.22;;;10.62;62.68
40570;BME280;26270;34.428;-119.710;2023-02-21T12:03:01;100858.11;;;10.91;61.51
40570;BME280;26270;34.428;-119.710;2023-02-21T12:05:39;100864.46;;;10.73;61.86
40570;BME280;26270;34.428;-119.710;2023-02-21T12:08:25;100858.27;;;10.97;61.02
40570;BME280;26270;34.428;-119.710;2023-02-21T12:11:02;100862.36;;;10.62;62.05
40570;BME280;26270;34.428;-119.710;2023-02-21T12:13:39;100856.01;;;10.48;62.37
40570;BME280;26270;34.428;-119.710;2023-02-21T12:16:21;100854.21;;;10.57;62.39
40570;BME280;26270;34.428;-119.710;2023-02-21T12:19:05;100847.40;;;10.51;62.91
40570;BME280;26270;34.428;-119.710;2023-02-21T12:21:50;100846.19;;;10.77;62.35
40570;BME280;26270;34.428;-119.710;2023-02-21T12:24:36;100845.63;;;10.63;62.99
40570;BME280;26270;34.428;-119.710;2023-02-21T12:27:11;100842.04;;;10.44;62.79
40570;BME280;26270;34.428;-119.710;2023-02-21T12:29:51;100840.79;;;10.57;62.45
40570;BME280;26270;34.428;-119.710;2023-02-21T12:32:41;100841.63;;;10.60;63.12
40570;BME280;26270;34.428;-119.710;2023-02-21T12:36:00;100848.55;;;10.64;62.47
40570;BME280;26270;34.428;-119.710;2023-02-21T12:38:35;100848.73;;;10.54;62.31
40570;BME280;26270;34.428;-119.710;2023-02-21T12:41:19;100846.90;;;10.44;62.66
40570;BME280;26270;34.428;-119.710;2023-02-21T12:43:54;100851.92;;;10.52;63.24
40570;BME280;26270;34.428;-119.710;2023-02-21T12:46:30;100848.43;;;10.63;63.20
40570;BME280;26270;34.428;-119.710;2023-02-21T12:49:04;100848.17;;;10.60;63.16
40570;BME280;26270;34.428;-119.710;2023-02-21T12:51:37;100844.94;;;10.47;63.22
40570;BME280;26270;34.428;-119.710;2023-02-21T12:54:11;100845.80;;;10.49;63.26
40570;BME280;26270;34.428;-119.710;2023-02-21T12:56:47;100844.24;;;10.24;62.83
40570;BME280;26270;34.428;-119.710;2023-02-21T12:59:21;100848.01;;;10.40;63.62
40570;BME280;26270;34.428;-119.710;2023-02-21T13:01:55;100852.06;;;10.29;64.00
40570;BME280;26270;34.428;-119.710;2023-02-21T13:04:33;100851.96;;;10.39;63.38
40570;BME280;26270;34.428;-119.710;2023-02-21T13:07:09;100842.03;;;10.33;63.47
40570;BME280;26270;34.428;-119.710;2023-02-21T13:09:42;100834.86;;;10.34;64.03
40570;BME280;26270;34.428;-119.710;2023-02-21T13:12:15;100834.82;;;10.55;63.82
40570;BME280;26270;34.428;-119.710;2023-02-21T13:14:47;100832.80;;;10.76;63.31
40570;BME280;26270;34.428;-119.710;2023-02-21T13:17:17;100824.39;;;10.79;64.02
40570;BME280;26270;34.428;-119.710;2023-02-21T13:19:51;100815.59;;;10.69;64.95
40570;BME280;26270;34.428;-119.710;2023-02-21T13:22:24;100806.87;;;10.71;65.12
40570;BME280;26270;34.428;-119.710;2023-02-21T13:25:05;100807.39;;;10.79;64.87
40570;BME280;26270;34.428;-119.710;2023-02-21T13:27:48;100809.37;;;10.91;64.46
40570;BME280;26270;34.428;-119.710;2023-02-21T13:30:22;100808.48;;;10.87;65.06
40570;BME280;26270;34.428;-119.710;2023-02-21T13:32:55;100810.70;;;10.73;64.33
40570;BME280;26270;34.428;-119.710;2023-02-21T13:35:31;100807.00;;;10.76;64.19
40570;BME280;26270;34.428;-119.710;2023-02-21T13:38:01;100808.74;;;10.82;64.51
40570;BME280;26270;34.428;-119.710;2023-02-21T13:40:35;100804.29;;;10.60;64.35
40570;BME280;26270;34.428;-119.710;2023-02-21T13:43:10;100799.40;;;10.58;64.45
40570;BME280;26270;34.428;-119.710;2023-02-21T13:45:39;100804.57;;;10.68;64.56
40570;BME280;26270;34.428;-119.710;2023-02-21T13:48:26;100799.16;;;10.65;64.59
40570;BME280;26270;34.428;-119.710;2023-02-21T13:50:57;100803.44;;;10.85;64.45
40570;BME280;26270;34.428;-119.710;2023-02-21T13:53:27;100801.31;;;10.55;64.74
40570;BME280;26270;34.428;-119.710;2023-02-21T13:56:17;100799.92;;;10.88;64.17
40570;BME280;26270;34.428;-119.710;2023-02-21T13:58:47;100798.96;;;10.82;64.52
40570;BME280;26270;34.428;-119.710;2023-02-21T14:01:49;100799.44;;;10.88;64.63
40570;BME280;26270;34.428;-119.710;2023-02-21T14:05:23;100800.36;;;10.78;64.71
40570;BME280;26270;34.428;-119.710;2023-02-21T14:08:00;100797.58;;;10.58;65.01
40570;BME280;26270;34.428;-119.710;2023-02-21T14:10:42;100791.98;;;10.80;64.97
40570;BME280;26270;34.428;-119.710;2023-02-21T14:13:22;100791.88;;;10.62;65.93
40570;BME280;26270;34.428;-119.710;2023-02-21T14:15:57;100791.69;;;10.49;66.32
40570;BME280;26270;34.428;-119.710;2023-02-21T14:18:28;100783.94;;;10.57;66.73
40570;BME280;26270;34.428;-119.710;2023-02-21T14:20:58;100780.57;;;10.44;66.43
40570;BME280;26270;34.428;-119.710;2023-02-21T14:23:44;100782.86;;;10.39;66.73
40570;BME280;26270;34.428;-119.710;2023-02-21T14:26:37;100781.50;;;10.41;66.70
40570;BME280;26270;34.428;-119.710;2023-02-21T14:29:14;100779.49;;;10.54;66.47
40570;BME280;26270;34.428;-119.710;2023-02-21T14:31:52;100783.78;;;10.52;66.39
40570;BME280;26270;34.428;-119.710;2023-02-21T14:34:26;100783.69;;;10.63;66.28
40570;BME280;26270;34.428;-119.710;2023-02-21T14:37:01;100781.87;;;10.67;66.30
40570;BME280;26270;34.428;-119.710;2023-02-21T14:39:34;100773.31;;;10.72;66.07
40570;BME280;26270;34.428;-119.710;2023-02-21T14:42:32;100771.27;;;10.75;66.25
40570;BME280;26270;34.428;-119.710;2023-02-21T14:45:43;100776.00;;;10.80;66.14
40570;BME280;26270;34.428;-119.710;2023-02-21T14:48:23;100776.05;;;10.80;66.15
40570;BME280;26270;34.428;-119.710;2023-02-21T14:51:39;100774.27;;;10.90;65.39
40570;BME280;26270;34.428;-119.710;2023-02-21T14:55:58;100766.79;;;11.07;65.52
40570;BME280;26270;34.428;-119.710;2023-02-21T15:00:50;100768.54;;;11.26;65.30
40570;BME280;26270;34.428;-119.710;2023-02-21T15:03:26;100767.74;;;11.34;65.02
40570;BME280;26270;34.428;-119.710;2023-02-21T15:06:02;100763.18;;;11.42;64.92
40570;BME280;26270;34.428;-119.710;2023-02-21T15:08:41;100774.83;;;11.57;64.68
40570;BME280;26270;34.428;-119.710;2023-02-21T15:11:28;100778.06;;;11.59;65.15
40570;BME280;26270;34.428;-119.710;2023-02-21T15:14:17;100783.82;;;11.94;65.06
40570;BME280;26270;34.428;-119.710;2023-02-21T15:16:47;100789.49;;;12.02;64.84
40570;BME280;26270;34.428;-119.710;2023-02-21T15:19:24;100793.11;;;12.20;64.81
40570;BME280;26270;34.428;-119.710;2023-02-21T15:22:10;100798.77;;;12.34;65.29
40570;BME280;26270;34.428;-119.710;2023-02-21T15:24:41;100809.56;;;12.45;65.52
40570;BME280;26270;34.428;-119.710;2023-02-21T15:27:11;100809.80;;;12.70;65.97
40570;BME280;26270;34.428;-119.710;2023-02-21T15:29:40;100813.54;;;12.68;66.94
40570;BME280;26270;34.428;-119.710;2023-02-21T15:32:11;100809.91;;;12.88;66.51
40570;BME280;26270;34.428;-119.710;2023-02-21T15:34:41;100805.95;;;13.18;66.10
40570;BME280;26270;34.428;-119.710;2023-02-21T15:37:17;100810.46;;;13.22;66.08
40570;BME280;26270;34.428;-119.710;2023-02-21T15:39:51;100821.79;;;13.39;66.26
40570;BME280;26270;34.428;-119.710;2023-02-21T15:42:22;100825.55;;;13.52;66.37
40570;BME280;26270;34.428;-119.710;2023-02-21T15:44:53;100825.56;;;13.61;65.63
40570;BME280;26270;34.428;-119.710;2023-02-21T15:47:25;100823.13;;;13.73;66.13
40570;BME280;26270;34.428;-119.710;2023-02-21T15:50:03;100824.42;;;13.85;66.15
40570;BME280;26270;34.428;-119.710;2023-02-21T15:52:36;100827.37;;;13.90;66.63
40570;BME280;26270;34.428;-119.710;2023-02-21T15:55:37;100828.56;;;14.20;65.32
40570;BME280;26270;34.428;-119.710;2023-02-21T15:58:15;100830.72;;;14.09;65.80
40570;BME280;26270;34.428;-119.710;2023-02-21T16:00:45;100833.82;;;14.31;66.05
40570;BME280;26270;34.428;-119.710;2023-02-21T16:03:33;100830.98;;;14.34;66.72
40570;BME280;26270;34.428;-119.710;2023-02-21T16:06:20;100824.55;;;14.52;66.61
40570;BME280;26270;34.428;-119.710;2023-02-21T16:08:56;100826.35;;;14.65;66.37
40570;BME280;26270;34.428;-119.710;2023-02-21T16:11:36;100818.68;;;14.82;66.09
40570;BME280;26270;34.428;-119.710;2023-02-21T16:14:13;100814.21;;;14.88;65.80
40570;BME280;26270;34.428;-119.710;2023-02-21T16:16:43;100811.90;;;14.94;65.87
40570;BME280;26270;34.428;-119.710;2023-02-21T16:19:11;100813.39;;;15.17;66.12
40570;BME280;26270;34.428;-119.710;2023-02-21T16:21:40;100812.74;;;15.32;65.11
40570;BME280;26270;34.428;-119.710;2023-02-21T16:24:28;100813.37;;;15.36;64.90
40570;BME280;26270;34.428;-119.710;2023-02-21T16:27:08;100816.50;;;15.56;64.29
40570;BME280;26270;34.428;-119.710;2023-02-21T16:29:37;100809.30;;;15.55;64.18
40570;BME280;26270;34.428;-119.710;2023-02-21T16:32:08;100806.65;;;15.76;63.36
40570;BME280;26270;34.428;-119.710;2023-02-21T16:34:42;100806.91;;;15.97;62.51
40570;BME280;26270;34.428;-119.710;2023-02-21T16:37:12;100804.66;;;15.87;61.72
40570;BME280;26270;34.428;-119.710;2023-02-21T16:39:41;100804.06;;;15.89;61.35
40570;BME280;26270;34.428;-119.710;2023-02-21T16:42:10;100795.40;;;16.21;60.59
40570;BME280;26270;34.428;-119.710;2023-02-21T16:44:38;100792.65;;;16.16;60.43
40570;BME280;26270;34.428;-119.710;2023-02-21T16:47:06;100793.21;;;16.30;59.80
40570;BME280;26270;34.428;-119.710;2023-02-21T16:49:34;100789.78;;;16.37;59.91
40570;BME280;26270;34.428;-119.710;2023-02-21T16:52:03;100791.93;;;16.45;60.30
40570;BME280;26270;34.428;-119.710;2023-02-21T16:54:32;100788.40;;;16.44;59.38
40570;BME280;26270;34.428;-119.710;2023-02-21T16:57:00;100779.83;;;16.57;59.62
40570;BME280;26270;34.428;-119.710;2023-02-21T16:59:29;100774.94;;;16.69;60.31
40570;BME280;26270;34.428;-119.710;2023-02-21T17:01:57;100781.30;;;16.76;60.17
40570;BME280;26270;34.428;-119.710;2023-02-21T17:04:26;100795.29;;;16.75;60.38
40570;BME280;26270;34.428;-119.710;2023-02-21T17:06:56;100796.49;;;16.87;60.72
40570;BME280;26270;34.428;-119.710;2023-02-21T17:09:28;100792.17;;;16.84;61.02
40570;BME280;26270;34.428;-119.710;2023-02-21T17:11:56;100790.42;;;16.85;61.19
40570;BME280;26270;34.428;-119.710;2023-02-21T17:14:25;100781.24;;;16.82;61.00
40570;BME280;26270;34.428;-119.710;2023-02-21T17:16:54;100770.68;;;17.10;60.87
40570;BME280;26270;34.428;-119.710;2023-02-21T17:19:22;100764.06;;;17.15;60.50
40570;BME280;26270;34.428;-119.710;2023-02-21T17:21:50;100762.33;;;17.12;60.65
40570;BME280;26270;34.428;-119.710;2023-02-21T17:24:18;100757.98;;;17.42;60.25
40570;BME280;26270;34.428;-119.710;2023-02-21T17:26:47;100761.37;;;17.37;60.47
40570;BME280;26270;34.428;-119.710;2023-02-21T17:29:19;100764.18;;;17.57;60.15
40570;BME280;26270;34.428;-119.710;2023-02-21T17:31:52;100754.22;;;17.42;60.44
40570;BME280;26270;34.428;-119.710;2023-02-21T17:34:20;100752.28;;;17.32;60.32
40570;BME280;26270;34.428;-119.710;2023-02-21T17:36:49;100755.63;;;17.28;60.67
40570;BME280;26270;34.428;-119.710;2023-02-21T17:39:18;100755.61;;;17.29;60.54
40570;BME280;26270;34.428;-119.710;2023-02-21T17:41:48;100760.55;;;17.39;60.33
40570;BME280;26270;34.428;-119.710;2023-02-21T17:44:17;100757.96;;;17.23;61.01
40570;BME280;26270;34.428;-119.710;2023-02-21T17:46:46;100758.12;;;17.15;61.21
40570;BME280;26270;34.428;-119.710;2023-02-21T17:49:16;100754.18;;;17.21;61.45
40570;BME280;26270;34.428;-119.710;2023-02-21T17:51:45;100759.30;;;16.99;62.25
40570;BME280;26270;34.428;-119.710;2023-02-21T17:54:14;100763.04;;;17.05;62.06
40570;BME280;26270;34.428;-119.710;2023-02-21T17:56:43;100760.36;;;17.05;62.45